sensor_id;sensor_type;location;lat;lon;timestamp;pressure;altitude;pressure_sealevel;temperature;humidity
49178;BME280;35016;55.674;37.468;2023-03-16T00:01:01;98617.88;;;4.31;66.52
49178;BME280;35016;55.674;37.468;2023-03-16T00:03:28;98620.56;;;4.31;66.33
49178;BME280;35016;55.674;37.468;2023-03-16T00:05:56;98609.00;;;4.30;66.67
49178;BME280;35016;55.674;37.468;2023-03-16T00:08:23;98609.59;;;4.32;66.50
49178;BME280;35016;55.674;37.468;2023-03-16T00:10:51;98607.72;;;4.33;66.31
49178;BME280;35016;55.674;37.468;2023-03-16T00:13:21;98603.41;;;4.32;66.43
49178;BME280;35016;55.674;37.468;2023-03-16T00:15:54;98587.78;;;4.29;66.42
49178;BME280;35016;55.674;37.468;2023-03-16T00:18:22;98587.22;;;4.27;66.74
49178;BME280;35016;55.674;37.468;2023-03-16T00:20:53;98593.63;;;4.26;66.51
49178;BME280;35016;55.674;37.468;2023-03-16T00:23:21;98588.59;;;4.29;66.86
49178;BME280;35016;55.674;37.468;2023-03-16T00:25:54;98586.47;;;4.31;66.51
49178;BME280;35016;55.674;37.468;2023-03-16T00:28:22;98590.78;;;4.32;66.87
49178;BME280;35016;55.674;37.468;2023-03-16T00:30:49;98595.94;;;4.34;66.64
49178;BME280;35016;55.674;37.468;2023-03-16T00:33:16;98595.72;;;4.35;66.72
49178;BME280;35016;55.674;37.468;2023-03-16T00:35:46;98601.88;;;4.36;66.74
49178;BME280;35016;55.674;37.468;2023-03-16T00:38:18;98599.22;;;4.36;67.16
49178;BME280;35016;55.674;37.468;2023-03-16T00:40:45;98594.66;;;4.37;66.83
49178;BME280;35016;55.674;37.468;2023-03-16T00:43:12;98605.97;;;4.39;66.87
49178;BME280;35016;55.674;37.468;2023-03-16T00:45:44;98592.53;;;4.39;66.71
49178;BME280;35016;55.674;37.468;2023-03-16T00:48:11;98601.88;;;4.36;66.84
49178;BME280;35016;55.674;37.468;2023-03-16T00:50:38;98595.94;;;4.34;66.75
49178;BME280;35016;55.674;37.468;2023-03-16T00:53:05;98599.09;;;4.31;66.82
49178;BME280;35016;55.674;37.468;2023-03-16T00:55:32;98595.25;;;4.27;66.77
49178;BME280;35016;55.674;37.468;2023-03-16T00:57:59;98601.13;;;4.24;66.80
49178;BME280;35016;55.674;37.468;2023-03-16T01:00:30;98596.72;;;4.18;67.30
49178;BME280;35016;55.674;37.468;2023-03-16T01:02:57;98600.69;;;4.15;66.82
49178;BME280;35016;55.674;37.468;2023-03-16T01:05:24;98600.38;;;4.12;67.09
49178;BME280;35016;55.674;37.468;2023-03-16T01:07:51;98593.38;;;4.11;67.02
49178;BME280;35016;55.674;37.468;2023-03-16T01:10:18;98591.97;;;4.08;67.18
49178;BME280;35016;55.674;37.468;2023-03-16T01:12:46;98594.31;;;4.04;66.97
49178;BME280;35016;55.674;37.468;2023-03-16T01:15:13;98596.41;;;4.02;66.94
49178;BME280;35016;55.674;37.468;2023-03-16T01:17:40;98599.34;;;4.01;67.25
49178;BME280;35016;55.674;37.468;2023-03-16T01:20:07;98602.00;;;4.01;67.46
49178;BME280;35016;55.674;37.468;2023-03-16T01:22:37;98600.16;;;4.01;67.23
49178;BME280;35016;55.674;37.468;2023-03-16T01:25:04;98596.16;;;4.04;67.43
49178;BME280;35016;55.674;37.468;2023-03-16T01:27:31;98596.78;;;4.06;67.33
49178;BME280;35016;55.674;37.468;2023-03-16T01:29:58;98595.72;;;4.07;67.30
49178;BME280;35016;55.674;37.468;2023-03-16T01:32:25;98602.13;;;4.06;67.23
49178;BME280;35016;55.674;37.468;2023-03-16T01:34:52;98599.47;;;4.06;67.37
49178;BME280;35016;55.674;37.468;2023-03-16T01:37:21;98606.44;;;4.07;67.40
49178;BME280;35016;55.674;37.468;2023-03-16T01:39:54;98596.78;;;4.06;67.06
49178;BME280;35016;55.674;37.468;2023-03-16T01:42:20;98600.50;;;4.05;67.08
49178;BME280;35016;55.674;37.468;2023-03-16T01:44:52;98593.72;;;4.02;67.10
49178;BME280;35016;55.674;37.468;2023-03-16T01:47:23;98597.47;;;4.01;67.22
49178;BME280;35016;55.674;37.468;2023-03-16T01:49:50;98602.00;;;4.01;67.59
49178;BME280;35016;55.674;37.468;2023-03-16T01:52:24;98604.69;;;4.01;67.41
49178;BME280;35016;55.674;37.468;2023-03-16T01:55:02;98607.72;;;4.04;67.61
49178;BME280;35016;55.674;37.468;2023-03-16T01:57:31;98604.47;;;4.02;67.48
49178;BME280;35016;55.674;37.468;2023-03-16T02:00:08;98597.69;;;4.00;67.25
49178;BME280;35016;55.674;37.468;2023-03-16T02:03:04;98596.66;;;4.01;67.53
49178;BME280;35016;55.674;37.468;2023-03-16T02:05:43;98597.94;;;3.98;67.54
49178;BME280;35016;55.674;37.468;2023-03-16T02:08:14;98602.16;;;3.94;67.60
49178;BME280;35016;55.674;37.468;2023-03-16T02:10:42;98599.72;;;3.93;67.76
49178;BME280;35016;55.674;37.468;2023-03-16T02:13:11;98606.94;;;3.92;67.78
49178;BME280;35016;55.674;37.468;2023-03-16T02:15:38;98617.19;;;3.95;67.72
49178;BME280;35016;55.674;37.468;2023-03-16T02:18:05;98612.16;;;3.99;67.71
49178;BME280;35016;55.674;37.468;2023-03-16T02:20:55;98599.34;;;4.01;67.70
49178;BME280;35016;55.674;37.468;2023-03-16T02:23:23;98605.50;;;4.01;67.41
49178;BME280;35016;55.674;37.468;2023-03-16T02:26:00;98600.16;;;4.01;67.84
49178;BME280;35016;55.674;37.468;2023-03-16T02:31:10;98605.88;;;4.05;67.83
49178;BME280;35016;55.674;37.468;2023-03-16T02:33:38;98602.72;;;4.08;67.65
49178;BME280;35016;55.674;37.468;2023-03-16T02:36:07;98596.06;;;4.11;67.66
49178;BME280;35016;55.674;37.468;2023-03-16T02:38:34;98595.56;;;4.14;67.75
49178;BME280;35016;55.674;37.468;2023-03-16T02:41:13;98589.16;;;4.15;67.69
49178;BME280;35016;55.674;37.468;2023-03-16T02:43:40;98589.47;;;4.18;67.84
49178;BME280;35016;55.674;37.468;2023-03-16T02:46:18;98588.19;;;4.21;68.03
49178;BME280;35016;55.674;37.468;2023-03-16T02:49:10;98586.06;;;4.23;67.56
49178;BME280;35016;55.674;37.468;2023-03-16T02:51:35;98584.53;;;4.27;67.98
49178;BME280;35016;55.674;37.468;2023-03-16T02:54:02;98581.84;;;4.27;67.53
49178;BME280;35016;55.674;37.468;2023-03-16T02:56:32;98584.53;;;4.27;67.91
49178;BME280;35016;55.674;37.468;2023-03-16T02:59:00;98585.09;;;4.29;67.86
49178;BME280;35016;55.674;37.468;2023-03-16T03:01:30;98588.59;;;4.29;67.60
49178;BME280;35016;55.674;37.468;2023-03-16T03:03:58;98590.72;;;4.27;67.52
49178;BME280;35016;55.674;37.468;2023-03-16T03:06:25;98589.09;;;4.26;67.73
49178;BME280;35016;55.674;37.468;2023-03-16T03:08:52;98579.66;;;4.24;67.74
49178;BME280;35016;55.674;37.468;2023-03-16T03:11:19;98580.47;;;4.24;67.78
49178;BME280;35016;55.674;37.468;2023-03-16T03:13:46;98578.34;;;4.26;68.09
49178;BME280;35016;55.674;37.468;2023-03-16T03:16:17;98575.19;;;4.29;67.85
49178;BME280;35016;55.674;37.468;2023-03-16T03:18:44;98581.13;;;4.31;67.98
49178;BME280;35016;55.674;37.468;2023-03-16T03:21:11;98578.44;;;4.31;68.13
49178;BME280;35016;55.674;37.468;2023-03-16T03:23:39;98591.28;;;4.29;67.48
49178;BME280;35016;55.674;37.468;2023-03-16T03:26:06;98577.88;;;4.29;67.70
49178;BME280;35016;55.674;37.468;2023-03-16T03:28:33;98574.38;;;4.29;67.83
49178;BME280;35016;55.674;37.468;2023-03-16T03:31:00;98576.00;;;4.30;67.97
49178;BME280;35016;55.674;37.468;2023-03-16T03:33:28;98575.75;;;4.31;67.96
49178;BME280;35016;55.674;37.468;2023-03-16T03:35:56;98571.19;;;4.32;67.71
49178;BME280;35016;55.674;37.468;2023-03-16T03:38:26;98575.28;;;4.34;67.80
49178;BME280;35016;55.674;37.468;2023-03-16T03:40:53;98571.06;;;4.39;67.96
49178;BME280;35016;55.674;37.468;2023-03-16T03:43:28;98569.53;;;4.43;68.24
49178;BME280;35016;55.674;37.468;2023-03-16T03:45:56;98580.59;;;4.46;67.77
49178;BME280;35016;55.674;37.468;2023-03-16T03:48:27;98567.16;;;4.46;67.89
49178;BME280;35016;55.674;37.468;2023-03-16T03:50:55;98567.16;;;4.46;68.06
49178;BME280;35016;55.674;37.468;2023-03-16T03:53:41;98565.78;;;4.44;67.84
49178;BME280;35016;55.674;37.468;2023-03-16T03:56:22;98579.44;;;4.42;67.60
49178;BME280;35016;55.674;37.468;2023-03-16T03:58:49;98577.56;;;4.43;67.78
49178;BME280;35016;55.674;37.468;2023-03-16T04:01:32;98581.31;;;4.42;68.18
49178;BME280;35016;55.674;37.468;2023-03-16T04:03:59;98585.88;;;4.41;67.97
49178;BME280;35016;55.674;37.468;2023-03-16T04:06:26;98585.88;;;4.41;67.79
49178;BME280;35016;55.674;37.468;2023-03-16T04:08:53;98576.44;;;4.39;67.69
49178;BME280;35016;55.674;37.468;2023-03-16T04:11:24;98575.63;;;4.38;68.03
49178;BME280;35016;55.674;37.468;2023-03-16T04:13:51;98572.13;;;4.38;68.09
49178;BME280;35016;55.674;37.468;2023-03-16T04:16:19;98574.47;;;4.34;68.04
49178;BME280;35016;55.674;37.468;2023-03-16T04:18:50;98575.75;;;4.31;68.27
49178;BME280;35016;55.674;37.468;2023-03-16T04:21:17;98572.50;;;4.29;68.03
49178;BME280;35016;55.674;37.468;2023-03-16T04:23:46;98569.00;;;4.29;68.40
49178;BME280;35016;55.674;37.468;2023-03-16T04:26:13;98575.66;;;4.26;68.23
49178;BME280;35016;55.674;37.468;2023-03-16T04:28:42;98568.59;;;4.20;67.94
49178;BME280;35016;55.674;37.468;2023-03-16T04:31:12;98577.94;;;4.18;68.27
49178;BME280;35016;55.674;37.468;2023-03-16T04:33:43;98579.00;;;4.17;68.01
49178;BME280;35016;55.674;37.468;2023-03-16T04:36:10;98577.59;;;4.14;68.12
49178;BME280;35016;55.674;37.468;2023-03-16T04:38:38;98576.78;;;4.14;68.40
49178;BME280;35016;55.674;37.468;2023-03-16T04:41:06;98582.41;;;4.12;68.53
49178;BME280;35016;55.674;37.468;2023-03-16T04:43:37;98588.81;;;4.11;68.39
49178;BME280;35016;55.674;37.468;2023-03-16T04:46:11;98596.88;;;4.11;68.52
49178;BME280;35016;55.674;37.468;2023-03-16T04:48:38;98595.56;;;4.14;68.48
49178;BME280;35016;55.674;37.468;2023-03-16T04:51:05;98591.59;;;4.16;68.23
49178;BME280;35016;55.674;37.468;2023-03-16T04:53:36;98602.66;;;4.20;68.40
49178;BME280;35016;55.674;37.468;2023-03-16T04:56:11;98609.66;;;4.21;68.22
49178;BME280;35016;55.674;37.468;2023-03-16T04:58:51;98614.78;;;4.22;68.57
49178;BME280;35016;55.674;37.468;2023-03-16T05:01:20;98622.00;;;4.22;68.35
49178;BME280;35016;55.674;37.468;2023-03-16T05:03:50;98615.25;;;4.19;68.23
49178;BME280;35016;55.674;37.468;2023-03-16T05:06:18;98618.19;;;4.18;68.41
49178;BME280;35016;55.674;37.468;2023-03-16T05:08:45;98621.44;;;4.20;68.62
49178;BME280;35016;55.674;37.468;2023-03-16T05:11:12;98612.09;;;4.22;68.28
49178;BME280;35016;55.674;37.468;2023-03-16T05:13:48;98621.75;;;4.23;68.36
49178;BME280;35016;55.674;37.468;2023-03-16T05:16:15;98625.84;;;4.26;68.42
49178;BME280;35016;55.674;37.468;2023-03-16T05:18:42;98619.41;;;4.27;68.50
49178;BME280;35016;55.674;37.468;2023-03-16T05:21:09;98623.47;;;4.29;68.24
49178;BME280;35016;55.674;37.468;2023-03-16T05:24:01;98613.00;;;4.28;68.40
49178;BME280;35016;55.674;37.468;2023-03-16T05:26:28;98615.34;;;4.24;68.34
49178;BME280;35016;55.674;37.468;2023-03-16T05:28:54;98621.75;;;4.23;68.56
49178;BME280;35016;55.674;37.468;2023-03-16T05:31:24;98612.91;;;4.23;68.29
49178;BME280;35016;55.674;37.468;2023-03-16T05:33:57;98606.47;;;4.24;68.17
49178;BME280;35016;55.674;37.468;2023-03-16T05:36:24;98609.72;;;4.26;68.37
49178;BME280;35016;55.674;37.468;2023-03-16T05:38:55;98616.81;;;4.32;68.47
49178;BME280;35016;55.674;37.468;2023-03-16T05:41:34;98621.50;;;4.37;68.39
49178;BME280;35016;55.674;37.468;2023-03-16T05:44:07;98618.31;;;4.40;68.77
49178;BME280;35016;55.674;37.468;2023-03-16T05:46:51;98619.13;;;4.40;68.92
49178;BME280;35016;55.674;37.468;2023-03-16T05:49:18;98618.91;;;4.42;68.54
49178;BME280;35016;55.674;37.468;2023-03-16T05:51:45;98629.97;;;4.45;68.78
49178;BME280;35016;55.674;37.468;2023-03-16T05:54:12;98627.84;;;4.47;68.43
49178;BME280;35016;55.674;37.468;2023-03-16T05:56:44;98630.03;;;4.50;68.86
49178;BME280;35016;55.674;37.468;2023-03-16T05:59:11;98627.94;;;4.52;68.53
49178;BME280;35016;55.674;37.468;2023-03-16T06:01:39;98625.00;;;4.54;68.24
49178;BME280;35016;55.674;37.468;2023-03-16T06:04:07;98620.19;;;4.56;68.72
49178;BME280;35016;55.674;37.468;2023-03-16T06:06:38;98626.16;;;4.58;68.60
49178;BME280;35016;55.674;37.468;2023-03-16T06:09:20;98629.41;;;4.60;68.73
49178;BME280;35016;55.674;37.468;2023-03-16T06:11:47;98630.69;;;4.57;68.92
49178;BME280;35016;55.674;37.468;2023-03-16T06:14:16;98634.19;;;4.58;68.46
49178;BME280;35016;55.674;37.468;2023-03-16T06:16:43;98636.31;;;4.56;68.72
49178;BME280;35016;55.674;37.468;2023-03-16T06:19:12;98648.59;;;4.52;68.67
49178;BME280;35016;55.674;37.468;2023-03-16T06:21:40;98657.69;;;4.51;68.67
49178;BME280;35016;55.674;37.468;2023-03-16T06:24:08;98667.16;;;4.53;68.61
49178;BME280;35016;55.674;37.468;2023-03-16T06:26:36;98666.09;;;4.54;69.18
49178;BME280;35016;55.674;37.468;2023-03-16T06:29:05;98667.47;;;4.57;68.70
49178;BME280;35016;55.674;37.468;2023-03-16T06:31:35;98661.06;;;4.58;68.87
49178;BME280;35016;55.674;37.468;2023-03-16T06:34:02;98657.56;;;4.57;68.93
49178;BME280;35016;55.674;37.468;2023-03-16T06:36:29;98660.22;;;4.57;68.79
49178;BME280;35016;55.674;37.468;2023-03-16T06:38:59;98659.19;;;4.58;68.75
49178;BME280;35016;55.674;37.468;2023-03-16T06:41:36;98660.56;;;4.61;69.02
49178;BME280;35016;55.674;37.468;2023-03-16T06:44:07;98657.19;;;4.65;69.02
49178;BME280;35016;55.674;37.468;2023-03-16T06:46:39;98649.22;;;4.71;68.85
49178;BME280;35016;55.674;37.468;2023-03-16T06:49:07;98653.59;;;4.77;68.62
49178;BME280;35016;55.674;37.468;2023-03-16T06:51:34;98652.06;;;4.81;68.39
49178;BME280;35016;55.674;37.468;2023-03-16T06:54:01;98653.19;;;4.85;68.58
49178;BME280;35016;55.674;37.468;2023-03-16T06:56:28;98647.09;;;4.89;69.04
49178;BME280;35016;55.674;37.468;2023-03-16T06:58:57;98659.56;;;4.95;69.21
49178;BME280;35016;55.674;37.468;2023-03-16T07:01:24;98654.03;;;5.02;69.08
49178;BME280;35016;55.674;37.468;2023-03-16T07:03:51;98648.16;;;5.05;68.99
49178;BME280;35016;55.674;37.468;2023-03-16T07:06:23;98642.06;;;5.10;68.80
49178;BME280;35016;55.674;37.468;2023-03-16T07:08:50;98643.75;;;5.16;68.65
49178;BME280;35016;55.674;37.468;2023-03-16T07:11:18;98649.44;;;5.19;68.98
49178;BME280;35016;55.674;37.468;2023-03-16T07:13:45;98650.03;;;5.21;68.60
49178;BME280;35016;55.674;37.468;2023-03-16T07:16:14;98650.38;;;5.25;69.23
49178;BME280;35016;55.674;37.468;2023-03-16T07:18:41;98655.81;;;5.30;68.89
49178;BME280;35016;55.674;37.468;2023-03-16T07:21:12;98662.41;;;5.39;68.93
49178;BME280;35016;55.674;37.468;2023-03-16T07:23:40;98665.72;;;5.46;68.68
49178;BME280;35016;55.674;37.468;2023-03-16T07:26:08;98652.13;;;5.53;69.29
49178;BME280;35016;55.674;37.468;2023-03-16T07:28:46;98658.88;;;5.55;69.29
49178;BME280;35016;55.674;37.468;2023-03-16T07:31:14;98653.25;;;5.57;69.20
49178;BME280;35016;55.674;37.468;2023-03-16T07:33:41;98652.75;;;5.60;68.89
49178;BME280;35016;55.674;37.468;2023-03-16T07:36:12;98644.75;;;5.65;69.41
49178;BME280;35016;55.674;37.468;2023-03-16T07:38:44;98640.31;;;5.76;69.22
49178;BME280;35016;55.674;37.468;2023-03-16T07:41:12;98643.50;;;5.89;69.05
49178;BME280;35016;55.674;37.468;2023-03-16T07:43:40;98641.97;;;5.99;69.04
49178;BME280;35016;55.674;37.468;2023-03-16T07:46:08;98639.69;;;6.07;69.15
49178;BME280;35016;55.674;37.468;2023-03-16T07:48:39;98640.31;;;6.14;69.29
49178;BME280;35016;55.674;37.468;2023-03-16T07:51:10;98639.53;;;6.19;68.57
49178;BME280;35016;55.674;37.468;2023-03-16T07:53:37;98635.53;;;6.21;68.80
49178;BME280;35016;55.674;37.468;2023-03-16T07:56:14;98639.59;;;6.24;68.39
49178;BME280;35016;55.674;37.468;2023-03-16T07:58:44;98633.69;;;6.27;68.84
49178;BME280;35016;55.674;37.468;2023-03-16T08:01:11;98628.63;;;6.31;68.71
49178;BME280;35016;55.674;37.468;2023-03-16T08:03:38;98622.47;;;6.35;69.08
49178;BME280;35016;55.674;37.468;2023-03-16T08:06:05;98635.75;;;6.42;69.39
49178;BME280;35016;55.674;37.468;2023-03-16T08:08:33;98635.59;;;6.53;69.39
49178;BME280;35016;55.674;37.468;2023-03-16T08:11:00;98640.50;;;6.62;69.47
49178;BME280;35016;55.674;37.468;2023-03-16T08:13:40;98641.16;;;6.69;69.29
49178;BME280;35016;55.674;37.468;2023-03-16T08:16:10;98647.66;;;6.73;69.37
49178;BME280;35016;55.674;37.468;2023-03-16T08:18:42;98647.38;;;6.74;68.81
49178;BME280;35016;55.674;37.468;2023-03-16T08:21:09;98646.28;;;6.70;69.36
49178;BME280;35016;55.674;37.468;2023-03-16T08:23:36;98644.28;;;6.61;69.03
49178;BME280;35016;55.674;37.468;2023-03-16T08:26:04;98646.94;;;6.56;68.95
49178;BME280;35016;55.674;37.468;2023-03-16T08:28:36;98648.00;;;6.55;69.72
49178;BME280;35016;55.674;37.468;2023-03-16T08:31:08;98643.69;;;6.53;69.27
49178;BME280;35016;55.674;37.468;2023-03-16T08:33:42;98642.31;;;6.51;69.50
49178;BME280;35016;55.674;37.468;2023-03-16T08:36:11;98645.56;;;6.53;69.27
49178;BME280;35016;55.674;37.468;2023-03-16T08:38:40;98651.81;;;6.59;69.16
49178;BME280;35016;55.674;37.468;2023-03-16T08:41:11;98653.97;;;6.62;69.61
49178;BME280;35016;55.674;37.468;2023-03-16T08:43:46;98652.34;;;6.61;68.98
49178;BME280;35016;55.674;37.468;2023-03-16T08:46:13;98655.31;;;6.59;68.97
49178;BME280;35016;55.674;37.468;2023-03-16T08:48:52;98655.88;;;6.61;69.19
49178;BME280;35016;55.674;37.468;2023-03-16T08:51:23;98656.16;;;6.65;69.01
49178;BME280;35016;55.674;37.468;2023-03-16T08:53:50;98655.69;;;6.68;69.10
49178;BME280;35016;55.674;37.468;2023-03-16T08:56:18;98659.44;;;6.67;69.11
49178;BME280;35016;55.674;37.468;2023-03-16T08:58:45;98654.81;;;6.62;69.21
49178;BME280;35016;55.674;37.468;2023-03-16T09:01:12;98659.88;;;6.59;69.12
49178;BME280;35016;55.674;37.468;2023-03-16T09:03:40;98661.22;;;6.56;68.94
49178;BME280;35016;55.674;37.468;2023-03-16T09:06:08;98653.13;;;6.56;69.10
49178;BME280;35016;55.674;37.468;2023-03-16T09:08:36;98652.88;;;6.58;69.09
49178;BME280;35016;55.674;37.468;2023-03-16T09:11:08;98656.13;;;6.60;69.47
49178;BME280;35016;55.674;37.468;2023-03-16T09:13:36;98651.28;;;6.62;69.00
49178;BME280;35016;55.674;37.468;2023-03-16T09:16:04;98651.03;;;6.63;68.95
49178;BME280;35016;55.674;37.468;2023-03-16T09:18:32;98647.78;;;6.61;68.94
49178;BME280;35016;55.674;37.468;2023-03-16T09:21:02;98645.91;;;6.62;69.03
49178;BME280;35016;55.674;37.468;2023-03-16T09:23:30;98644.91;;;6.68;69.57
49178;BME280;35016;55.674;37.468;2023-03-16T09:25:57;98647.38;;;6.74;69.13
49178;BME280;35016;55.674;37.468;2023-03-16T09:28:25;98650.94;;;6.80;69.56
49178;BME280;35016;55.674;37.468;2023-03-16T09:30:56;98650.44;;;6.83;69.17
49178;BME280;35016;55.674;37.468;2023-03-16T09:33:24;98662.31;;;6.87;69.61
49178;BME280;35016;55.674;37.468;2023-03-16T09:35:51;98645.88;;;6.89;69.15
49178;BME280;35016;55.674;37.468;2023-03-16T09:38:18;98648.31;;;6.90;68.92
49178;BME280;35016;55.674;37.468;2023-03-16T09:40:45;98653.72;;;6.90;69.26
49178;BME280;35016;55.674;37.468;2023-03-16T09:48:08;98647.59;;;6.95;69.42
49178;BME280;35016;55.674;37.468;2023-03-16T09:50:39;98643.81;;;6.96;69.58
49178;BME280;35016;55.674;37.468;2023-03-16T09:53:22;98646.81;;;6.99;69.21
49178;BME280;35016;55.674;37.468;2023-03-16T09:56:01;98655.72;;;7.00;69.25
49178;BME280;35016;55.674;37.468;2023-03-16T09:58:29;98652.47;;;6.98;69.01
49178;BME280;35016;55.674;37.468;2023-03-16T10:06:22;98660.81;;;6.96;69.55
49178;BME280;35016;55.674;37.468;2023-03-16T10:11:29;98656.25;;;7.02;68.96
49178;BME280;35016;55.674;37.468;2023-03-16T10:14:08;98657.06;;;7.02;68.89
49178;BME280;35016;55.674;37.468;2023-03-16T10:16:38;98653.56;;;7.02;68.77
49178;BME280;35016;55.674;37.468;2023-03-16T10:19:09;98652.22;;;7.04;69.38
49178;BME280;35016;55.674;37.468;2023-03-16T10:21:39;98654.66;;;7.06;69.19
49178;BME280;35016;55.674;37.468;2023-03-16T10:26:56;98653.63;;;7.12;68.85
49178;BME280;35016;55.674;37.468;2023-03-16T10:29:29;98656.63;;;7.15;68.91
49178;BME280;35016;55.674;37.468;2023-03-16T10:31:58;98655.56;;;7.17;69.12
49178;BME280;35016;55.674;37.468;2023-03-16T10:34:27;98657.44;;;7.16;69.29
49178;BME280;35016;55.674;37.468;2023-03-16T10:36:54;98663.91;;;7.15;69.08
49178;BME280;35016;55.674;37.468;2023-03-16T10:39:21;98661.72;;;7.12;69.31
49178;BME280;35016;55.674;37.468;2023-03-16T10:41:54;98667.91;;;7.07;68.98
49178;BME280;35016;55.674;37.468;2023-03-16T10:44:22;98672.69;;;7.00;69.45
49178;BME280;35016;55.674;37.468;2023-03-16T10:46:58;98668.06;;;6.96;69.15
49178;BME280;35016;55.674;37.468;2023-03-16T10:51:56;98664.97;;;6.82;69.36
49178;BME280;35016;55.674;37.468;2023-03-16T10:56:58;98670.56;;;6.75;69.57
49178;BME280;35016;55.674;37.468;2023-03-16T11:01:53;98661.69;;;6.75;69.03
49178;BME280;35016;55.674;37.468;2023-03-16T11:04:20;98656.81;;;6.72;69.15
49178;BME280;35016;55.674;37.468;2023-03-16T11:06:48;98661.63;;;6.70;69.15
49178;BME280;35016;55.674;37.468;2023-03-16T11:09:21;98670.22;;;6.67;69.33
49178;BME280;35016;55.674;37.468;2023-03-16T11:11:49;98671.53;;;6.64;69.44
49178;BME280;35016;55.674;37.468;2023-03-16T11:14:18;98667.47;;;6.62;69.51
49178;BME280;35016;55.674;37.468;2023-03-16T11:16:47;98667.72;;;6.60;69.46
49178;BME280;35016;55.674;37.468;2023-03-16T11:21:58;98679.50;;;6.54;69.11
49178;BME280;35016;55.674;37.468;2023-03-16T11:27:01;98673.50;;;6.47;69.04
49178;BME280;35016;55.674;37.468;2023-03-16T11:32:03;98668.59;;;6.39;69.62
49178;BME280;35016;55.674;37.468;2023-03-16T11:34:31;98671.53;;;6.37;69.83
49178;BME280;35016;55.674;37.468;2023-03-16T11:44:52;98687.78;;;6.26;69.66
49178;BME280;35016;55.674;37.468;2023-03-16T11:56:18;98700.06;;;6.16;69.67
49178;BME280;35016;55.674;37.468;2023-03-16T12:15:50;98696.22;;;6.07;69.59
49178;BME280;35016;55.674;37.468;2023-03-16T12:19:00;98705.66;;;6.10;69.26
49178;BME280;35016;55.674;37.468;2023-03-16T12:21:16;98702.16;;;6.09;69.87
49178;BME280;35016;55.674;37.468;2023-03-16T12:23:52;98698.66;;;6.09;69.25
49178;BME280;35016;55.674;37.468;2023-03-16T12:26:22;98700.75;;;6.07;69.46
49178;BME280;35016;55.674;37.468;2023-03-16T12:28:50;98707.44;;;6.04;69.64
49178;BME280;35016;55.674;37.468;2023-03-16T12:31:19;98707.94;;;6.01;69.62
49178;BME280;35016;55.674;37.468;2023-03-16T12:33:56;98713.81;;;5.98;69.89
49178;BME280;35016;55.674;37.468;2023-03-16T12:38:58;98713.50;;;5.95;69.27
49178;BME280;35016;55.674;37.468;2023-03-16T12:41:53;98716.47;;;5.93;69.79
49178;BME280;35016;55.674;37.468;2023-03-16T12:46:50;98721.53;;;5.89;69.32
49178;BME280;35016;55.674;37.468;2023-03-16T12:49:18;98722.00;;;5.86;69.58
49178;BME280;35016;55.674;37.468;2023-03-16T12:52:00;98725.94;;;5.79;69.78
49178;BME280;35016;55.674;37.468;2023-03-16T12:54:28;98735.22;;;5.71;69.81
49178;BME280;35016;55.674;37.468;2023-03-16T12:56:59;98733.25;;;5.67;69.38
49178;BME280;35016;55.674;37.468;2023-03-16T12:59:35;98735.38;;;5.65;69.46
49178;BME280;35016;55.674;37.468;2023-03-16T13:02:02;98741.00;;;5.63;70.08
49178;BME280;35016;55.674;37.468;2023-03-16T13:04:30;98734.50;;;5.59;69.98
49178;BME280;35016;55.674;37.468;2023-03-16T13:07:00;98730.09;;;5.53;69.77
49178;BME280;35016;55.674;37.468;2023-03-16T13:09:28;98728.94;;;5.49;69.55
49178;BME280;35016;55.674;37.468;2023-03-16T13:12:00;98736.13;;;5.43;69.70
49178;BME280;35016;55.674;37.468;2023-03-16T13:14:41;98733.34;;;5.38;69.45
49178;BME280;35016;55.674;37.468;2023-03-16T13:19:42;98730.06;;;5.19;69.37
49178;BME280;35016;55.674;37.468;2023-03-16T13:22:19;98728.38;;;5.13;70.02
49178;BME280;35016;55.674;37.468;2023-03-16T13:27:41;98731.22;;;5.07;70.24
49178;BME280;35016;55.674;37.468;2023-03-16T13:30:16;98726.56;;;5.02;69.79
49178;BME280;35016;55.674;37.468;2023-03-16T13:32:44;98726.25;;;4.98;69.80
49178;BME280;35016;55.674;37.468;2023-03-16T13:35:12;98722.41;;;4.94;70.32
49178;BME280;35016;55.674;37.468;2023-03-16T13:37:41;98733.06;;;4.89;70.37
49178;BME280;35016;55.674;37.468;2023-03-16T13:40:20;98720.34;;;4.85;70.16
49178;BME280;35016;55.674;37.468;2023-03-16T13:42:47;98721.06;;;4.80;70.15
49178;BME280;35016;55.674;37.468;2023-03-16T13:45:21;98733.34;;;4.76;69.91
49178;BME280;35016;55.674;37.468;2023-03-16T13:47:49;98746.69;;;4.71;70.07
49178;BME280;35016;55.674;37.468;2023-03-16T13:50:16;98732.78;;;4.74;70.17
49178;BME280;35016;55.674;37.468;2023-03-16T13:52:52;98724.72;;;4.74;70.71
49178;BME280;35016;55.674;37.468;2023-03-16T13:55:24;98731.63;;;4.70;70.30
49178;BME280;35016;55.674;37.468;2023-03-16T13:57:52;98738.31;;;4.68;70.36
49178;BME280;35016;55.674;37.468;2023-03-16T14:00:20;98736.91;;;4.65;70.26
49178;BME280;35016;55.674;37.468;2023-03-16T14:02:51;98733.66;;;4.63;70.63
49178;BME280;35016;55.674;37.468;2023-03-16T14:05:20;98731.19;;;4.61;70.20
49178;BME280;35016;55.674;37.468;2023-03-16T14:07:48;98734.94;;;4.60;70.71
49178;BME280;35016;55.674;37.468;2023-03-16T14:10:16;98735.16;;;4.59;70.76
49178;BME280;35016;55.674;37.468;2023-03-16T14:12:50;98735.66;;;4.56;70.55
49178;BME280;35016;55.674;37.468;2023-03-16T14:15:17;98728.31;;;4.51;70.44
49178;BME280;35016;55.674;37.468;2023-03-16T14:17:44;98735.22;;;4.47;70.24
49178;BME280;35016;55.674;37.468;2023-03-16T14:20:18;98728.94;;;4.42;70.91
49178;BME280;35016;55.674;37.468;2023-03-16T14:22:46;98723.25;;;4.38;70.41
49178;BME280;35016;55.674;37.468;2023-03-16T14:25:20;98724.28;;;4.37;70.59
49178;BME280;35016;55.674;37.468;2023-03-16T14:27:56;98730.97;;;4.34;70.63
49178;BME280;35016;55.674;37.468;2023-03-16T14:30:25;98735.97;;;4.31;70.67
49178;BME280;35016;55.674;37.468;2023-03-16T14:33:00;98726.50;;;4.28;70.99